Time;durP1;ratioP1;P1;durP2;ratioP2;P2;SDS_P1;SDS_P2;PMS_P1;PMS_P2;Temp;Humidity;BMP_temperature;BMP_pressure;BME280_temperature;BME280_humidity;BME280_pressure;Samples;Min_cycle;Max_cycle;Signal;HPM_P1;HPM_P2
2020/12/27 00:00:45;;;;;;;0.40;0.10;;;19.10;41.60;;;;;;5037374;28;20045;-44
2020/12/27 00:03:10;;;;;;;0.10;0.00;;;19.20;41.60;;;;;;5030982;28;20114;-43
2020/12/27 00:05:36;;;;;;;0.20;0.10;;;19.10;41.60;;;;;;5023206;28;20025;-44
2020/12/27 00:08:01;;;;;;;0.40;0.05;;;19.10;41.60;;;;;;5028917;28;20039;-43
2020/12/27 00:10:27;;;;;;;0.57;0.10;;;19.10;42.20;;;;;;5028300;28;20038;-43
2020/12/27 00:12:53;;;;;;;0.22;0.10;;;19.10;41.70;;;;;;5030157;28;20394;-46
2020/12/27 00:15:18;;;;;;;0.30;0.10;;;19.10;41.60;;;;;;5028482;28;20037;-44
2020/12/27 00:17:45;;;;;;;0.50;0.10;;;19.10;41.50;;;;;;5029432;28;20037;-43
2020/12/27 00:20:10;;;;;;;0.55;0.10;;;19.10;41.50;;;;;;5028953;28;20041;-44
2020/12/27 00:22:36;;;;;;;0.20;0.00;;;19.10;41.60;;;;;;5029193;28;20048;-43
2020/12/27 00:25:02;;;;;;;0.43;0.10;;;19.00;41.50;;;;;;5029233;28;20069;-44
2020/12/27 00:27:28;;;;;;;0.60;0.10;;;19.10;41.60;;;;;;5028691;28;20036;-44
2020/12/27 00:29:53;;;;;;;0.30;0.10;;;19.00;41.40;;;;;;5028106;28;20041;-43
2020/12/27 00:32:19;;;;;;;0.30;0.03;;;19.00;41.50;;;;;;5029811;28;20036;-41
2020/12/27 00:34:44;;;;;;;0.47;0.00;;;19.00;41.50;;;;;;5033014;28;20055;-42
2020/12/27 00:37:10;;;;;;;0.28;0.10;;;19.00;41.50;;;;;;5024072;28;20132;-43
2020/12/27 00:39:36;;;;;;;0.40;0.05;;;19.00;41.50;;;;;;5032621;28;20041;-42
2020/12/27 00:42:02;;;;;;;0.25;0.05;;;19.00;41.50;;;;;;5035646;28;20080;-41
2020/12/27 00:44:29;;;;;;;0.20;0.10;;;19.00;41.50;;;;;;5033544;28;20033;-41
2020/12/27 00:46:54;;;;;;;0.10;0.03;;;19.00;41.50;;;;;;5019065;28;20057;-42
2020/12/27 00:49:21;;;;;;;0.30;0.00;;;19.00;41.50;;;;;;5040396;28;20072;-43
2020/12/27 00:51:47;;;;;;;0.10;0.00;;;19.00;41.40;;;;;;5040325;28;20080;-43
2020/12/27 00:54:13;;;;;;;0.22;0.00;;;19.00;41.40;;;;;;5046036;28;20036;-46
2020/12/27 00:56:39;;;;;;;0.28;0.10;;;19.00;41.40;;;;;;5046125;28;20041;-45
2020/12/27 00:59:05;;;;;;;0.25;0.00;;;19.00;41.30;;;;;;5017021;28;20101;-44
2020/12/27 01:01:31;;;;;;;0.10;0.00;;;19.00;41.30;;;;;;5034331;28;20089;-45
2020/12/27 01:03:57;;;;;;;0.10;0.00;;;18.90;41.20;;;;;;5039883;28;20056;-43
2020/12/27 01:06:26;;;;;;;0.10;0.00;;;18.90;41.20;;;;;;5031580;28;20041;-45
2020/12/27 01:08:55;;;;;;;0.20;0.00;;;18.90;41.20;;;;;;5035273;28;20026;-42
2020/12/27 01:11:21;;;;;;;0.20;0.00;;;18.90;41.20;;;;;;5037295;28;20037;-43
2020/12/27 01:13:47;;;;;;;0.10;0.00;;;18.90;41.20;;;;;;5050681;28;20029;-42
2020/12/27 01:16:14;;;;;;;0.20;0.00;;;18.90;41.20;;;;;;5031451;28;20598;-44
2020/12/27 01:18:42;;;;;;;0.20;0.00;;;18.90;41.30;;;;;;5032727;28;20029;-44
2020/12/27 01:21:08;;;;;;;0.10;0.00;;;18.90;41.30;;;;;;5039536;28;20033;-44
2020/12/27 01:23:33;;;;;;;0.30;0.10;;;18.80;41.30;;;;;;5031226;28;20060;-45
2020/12/27 01:25:59;;;;;;;0.10;0.00;;;18.80;41.30;;;;;;5048626;28;21381;-44
2020/12/27 01:28:24;;;;;;;1.23;0.00;;;18.90;41.20;;;;;;5031605;28;20030;-43
2020/12/27 01:30:50;;;;;;;0.65;0.00;;;18.80;41.20;;;;;;5047314;28;20030;-43
2020/12/27 01:33:16;;;;;;;0.35;0.00;;;18.80;41.20;;;;;;5015495;28;20049;-45
2020/12/27 01:35:45;;;;;;;0.10;0.00;;;18.80;41.20;;;;;;5034468;28;20044;-41
2020/12/27 01:38:12;;;;;;;0.20;0.00;;;18.80;41.20;;;;;;5031270;28;20489;-44
2020/12/27 01:40:37;;;;;;;0.10;0.00;;;18.80;41.10;;;;;;5030979;28;20042;-44
2020/12/27 01:43:03;;;;;;;0.10;0.00;;;18.80;41.10;;;;;;5031702;28;20029;-42
2020/12/27 01:45:28;;;;;;;0.30;0.00;;;18.80;41.00;;;;;;5032055;28;20037;-45
2020/12/27 01:47:54;;;;;;;1.08;0.03;;;18.80;41.00;;;;;;5030864;28;20033;-44
2020/12/27 01:50:20;;;;;;;0.30;0.00;;;18.80;41.00;;;;;;5039812;28;20029;-43
2020/12/27 01:52:47;;;;;;;0.00;0.00;;;18.70;41.00;;;;;;5035085;28;20423;-42
2020/12/27 01:55:13;;;;;;;0.20;0.00;;;18.80;41.00;;;;;;5035991;28;20025;-43
2020/12/27 01:57:58;;;;;;;0.28;0.00;;;18.70;41.00;;;;;;5031185;28;20380;-44
2020/12/27 02:00:24;;;;;;;0.10;0.00;;;18.70;41.00;;;;;;5047982;28;20409;-44
2020/12/27 02:02:49;;;;;;;0.10;0.00;;;18.70;40.90;;;;;;5043257;28;20357;-44
2020/12/27 02:05:15;;;;;;;0.20;0.00;;;18.70;41.00;;;;;;5037712;28;20048;-43
2020/12/27 02:07:44;;;;;;;0.88;0.00;;;18.70;41.00;;;;;;5030737;28;20075;-44
2020/12/27 02:10:09;;;;;;;0.00;0.00;;;18.70;41.00;;;;;;5035164;28;20048;-44
2020/12/27 02:12:35;;;;;;;0.05;0.00;;;18.70;40.90;;;;;;5034492;28;20030;-41
2020/12/27 02:15:00;;;;;;;0.00;0.00;;;18.70;40.90;;;;;;5030841;28;20025;-43
2020/12/27 02:17:26;;;;;;;0.10;0.00;;;18.70;40.90;;;;;;5033459;28;20084;-40
2020/12/27 02:19:52;;;;;;;0.10;0.00;;;18.70;40.90;;;;;;5042374;28;20090;-41
2020/12/27 02:22:17;;;;;;;0.10;0.00;;;18.70;40.90;;;;;;5045378;28;20038;-43
2020/12/27 02:24:43;;;;;;;0.13;0.00;;;18.60;40.90;;;;;;5034211;28;20060;-41
2020/12/27 02:27:09;;;;;;;0.13;0.00;;;18.60;40.90;;;;;;5031143;28;20493;-40
2020/12/27 02:29:36;;;;;;;0.20;0.00;;;18.60;40.90;;;;;;5029947;28;20041;-40
2020/12/27 02:32:02;;;;;;;0.10;0.00;;;18.60;40.90;;;;;;5032376;28;20033;-42
2020/12/27 02:34:28;;;;;;;0.20;0.00;;;18.60;40.90;;;;;;5041646;28;20584;-42
2020/12/27 02:36:54;;;;;;;0.30;0.00;;;18.60;40.80;;;;;;5012408;28;20100;-43
2020/12/27 02:39:20;;;;;;;0.10;0.00;;;18.60;40.80;;;;;;5035805;28;20060;-43
2020/12/27 02:41:50;;;;;;;0.00;0.00;;;18.60;40.80;;;;;;5030829;28;20040;-42
2020/12/27 02:44:16;;;;;;;0.13;0.00;;;18.60;40.80;;;;;;5042490;28;20033;-44
2020/12/27 02:46:42;;;;;;;0.22;0.00;;;18.60;40.70;;;;;;5037194;28;20021;-42
2020/12/27 02:49:08;;;;;;;0.10;0.00;;;18.60;40.70;;;;;;5030247;28;20034;-43
2020/12/27 02:51:34;;;;;;;0.08;0.00;;;18.60;40.80;;;;;;5029000;28;20021;-42
2020/12/27 02:53:59;;;;;;;0.73;0.00;;;18.60;40.80;;;;;;5037521;28;20031;-42
2020/12/27 02:56:26;;;;;;;0.10;0.00;;;18.60;40.80;;;;;;5040914;28;20025;-44
2020/12/27 02:58:54;;;;;;;0.10;0.00;;;18.50;40.70;;;;;;5031330;28;20120;-42
2020/12/27 03:01:20;;;;;;;0.10;0.00;;;18.50;40.70;;;;;;5041980;28;20095;-44
2020/12/27 03:03:46;;;;;;;0.10;0.00;;;18.50;40.70;;;;;;5043039;28;20477;-45
2020/12/27 03:06:12;;;;;;;0.20;0.00;;;18.50;40.70;;;;;;5047695;28;20414;-43
2020/12/27 03:08:38;;;;;;;0.10;0.00;;;18.50;40.70;;;;;;5033274;28;20175;-46
2020/12/27 03:11:04;;;;;;;0.20;0.00;;;18.50;40.60;;;;;;5034109;28;20033;-44
2020/12/27 03:13:32;;;;;;;0.10;0.00;;;18.50;40.60;;;;;;5038272;28;20037;-44
2020/12/27 03:15:58;;;;;;;0.05;0.00;;;18.50;40.60;;;;;;5036073;28;20422;-46
2020/12/27 03:18:25;;;;;;;0.10;0.00;;;18.50;40.60;;;;;;5019551;28;20025;-45
2020/12/27 03:20:51;;;;;;;0.10;0.00;;;18.50;40.70;;;;;;5026699;28;20033;-45
2020/12/27 03:23:16;;;;;;;0.00;0.00;;;18.50;40.70;;;;;;5040408;28;20446;-45
2020/12/27 03:25:43;;;;;;;0.05;0.00;;;18.50;40.70;;;;;;5038595;28;20276;-46
2020/12/27 03:28:09;;;;;;;0.08;0.00;;;18.50;40.60;;;;;;5019223;28;20149;-44
2020/12/27 03:30:35;;;;;;;0.15;0.00;;;18.50;40.70;;;;;;5024257;28;20245;-44
2020/12/27 03:33:01;;;;;;;0.10;0.00;;;18.40;40.60;;;;;;5042015;28;20597;-44
2020/12/27 03:35:27;;;;;;;0.10;0.00;;;18.40;40.60;;;;;;5016494;28;20025;-45
2020/12/27 03:37:52;;;;;;;0.03;0.00;;;18.40;40.50;;;;;;5038415;28;20109;-45
2020/12/27 03:40:18;;;;;;;0.00;0.00;;;18.50;40.60;;;;;;5032787;28;20104;-44
2020/12/27 03:42:44;;;;;;;0.00;0.00;;;18.40;40.60;;;;;;5015068;28;20385;-46
2020/12/27 03:45:10;;;;;;;0.00;0.00;;;18.40;40.60;;;;;;5031448;28;20105;-44
2020/12/27 03:47:36;;;;;;;0.08;0.00;;;18.40;40.60;;;;;;5045358;28;20498;-45
2020/12/27 03:50:02;;;;;;;0.08;0.00;;;18.40;40.50;;;;;;5029387;28;20027;-45
2020/12/27 03:52:28;;;;;;;0.05;0.00;;;18.40;40.60;;;;;;5029237;28;20018;-45
2020/12/27 03:54:53;;;;;;;0.20;0.00;;;18.40;40.60;;;;;;5029366;28;20401;-44
2020/12/27 03:57:19;;;;;;;0.63;0.00;;;18.40;40.50;;;;;;5029372;28;20040;-43
2020/12/27 03:59:44;;;;;;;0.00;0.00;;;18.40;40.50;;;;;;5037218;28;20036;-42
2020/12/27 04:02:10;;;;;;;0.28;0.00;;;18.40;40.50;;;;;;5029734;28;20109;-43
2020/12/27 04:04:35;;;;;;;0.00;0.00;;;18.40;40.50;;;;;;5040849;28;20128;-43
2020/12/27 04:07:01;;;;;;;0.25;0.00;;;18.40;40.50;;;;;;5030588;28;20128;-43
2020/12/27 04:09:26;;;;;;;0.10;0.00;;;18.40;40.50;;;;;;5037918;28;20017;-42
2020/12/27 04:11:52;;;;;;;0.00;0.00;;;18.40;40.40;;;;;;5040787;28;20040;-46
2020/12/27 04:14:17;;;;;;;0.00;0.00;;;18.40;40.40;;;;;;5040552;28;20351;-43
2020/12/27 04:16:43;;;;;;;0.00;0.00;;;18.30;40.40;;;;;;5037261;28;20037;-43
2020/12/27 04:19:09;;;;;;;0.20;0.00;;;18.40;40.50;;;;;;5036820;28;20033;-45
2020/12/27 04:21:34;;;;;;;0.10;0.00;;;18.30;40.40;;;;;;5052443;28;20028;-42
2020/12/27 04:24:00;;;;;;;0.03;0.00;;;18.30;40.40;;;;;;5040453;28;20033;-43
2020/12/27 04:26:25;;;;;;;0.03;0.00;;;18.30;40.40;;;;;;5032444;28;20053;-45
2020/12/27 04:28:51;;;;;;;0.10;0.00;;;18.30;40.40;;;;;;5032346;28;20099;-44
2020/12/27 04:31:20;;;;;;;0.00;0.00;;;18.30;40.40;;;;;;5032648;28;20033;-43
2020/12/27 04:33:49;;;;;;;0.00;0.00;;;18.30;40.40;;;;;;5035133;28;20028;-46
2020/12/27 04:36:16;;;;;;;0.00;0.00;;;18.20;40.30;;;;;;5034983;28;20478;-43
2020/12/27 04:38:42;;;;;;;0.20;0.00;;;18.20;40.30;;;;;;5035191;28;20399;-45
2020/12/27 04:41:10;;;;;;;0.00;0.00;;;18.20;40.30;;;;;;5032592;28;20528;-45
2020/12/27 04:43:37;;;;;;;0.00;0.00;;;18.30;40.20;;;;;;5039642;28;20122;-45
2020/12/27 04:46:04;;;;;;;0.05;0.00;;;18.30;40.20;;;;;;5040065;28;20026;-44
2020/12/27 04:48:31;;;;;;;0.00;0.00;;;18.20;40.30;;;;;;5032318;28;20041;-44
2020/12/27 04:51:05;;;;;;;0.00;0.00;;;18.20;40.20;;;;;;5031794;28;20105;-44
2020/12/27 04:53:31;;;;;;;0.20;0.00;;;18.20;40.10;;;;;;5039398;28;20036;-43
2020/12/27 04:55:59;;;;;;;0.10;0.00;;;18.20;40.10;;;;;;5047193;28;20029;-44
2020/12/27 04:58:24;;;;;;;0.00;0.00;;;18.20;40.10;;;;;;5031684;28;20047;-43
2020/12/27 05:00:50;;;;;;;0.10;0.00;;;18.20;40.10;;;;;;5032396;28;20128;-44
2020/12/27 05:03:16;;;;;;;0.00;0.00;;;18.20;40.10;;;;;;5042598;28;20029;-45
2020/12/27 05:05:42;;;;;;;0.00;0.00;;;18.20;40.10;;;;;;5031484;28;20112;-45
2020/12/27 05:08:07;;;;;;;0.10;0.00;;;18.20;40.10;;;;;;5033325;28;20566;-44
2020/12/27 05:10:39;;;;;;;0.15;0.00;;;18.20;40.10;;;;;;5013697;28;20037;-45
2020/12/27 05:13:05;;;;;;;;;;;18.10;40.10;;;;;;5051213;28;20122;-44
2020/12/27 05:15:33;;;;;;;0.10;0.00;;;18.10;40.10;;;;;;5033971;28;19913;-44
2020/12/27 05:17:58;;;;;;;0.00;0.00;;;18.10;40.10;;;;;;5047040;28;20457;-43
2020/12/27 05:20:25;;;;;;;0.00;0.00;;;18.10;40.00;;;;;;5030231;28;20489;-43
2020/12/27 05:22:50;;;;;;;0.10;0.00;;;18.10;40.00;;;;;;5037945;28;20372;-42
2020/12/27 05:25:16;;;;;;;0.00;0.00;;;18.10;40.00;;;;;;5031949;28;20044;-45
2020/12/27 05:27:43;;;;;;;0.00;0.00;;;18.10;40.00;;;;;;5038022;28;20406;-44
2020/12/27 05:30:09;;;;;;;0.10;0.00;;;18.10;40.10;;;;;;5031619;28;20026;-44
2020/12/27 05:32:36;;;;;;;0.00;0.00;;;18.10;40.60;;;;;;5086039;22;20167;-43
2020/12/27 05:35:09;;;;;;;0.50;0.00;;;18.10;40.10;;;;;;5065607;28;20063;-41
2020/12/27 05:37:37;;;;;;;0.10;0.00;;;18.10;40.00;;;;;;5081206;28;20388;-46
2020/12/27 05:40:06;;;;;;;0.03;0.00;;;18.10;40.00;;;;;;5065097;28;20186;-45
2020/12/27 05:42:32;;;;;;;0.00;0.00;;;18.10;40.00;;;;;;5066932;28;20059;-46
2020/12/27 05:45:10;;;;;;;0.00;0.00;;;18.10;40.00;;;;;;5061471;28;20036;-44
2020/12/27 05:47:36;;;;;;;0.30;0.00;;;18.10;40.00;;;;;;5062668;28;20032;-44
2020/12/27 05:50:02;;;;;;;0.13;0.00;;;18.10;40.50;;;;;;5053119;28;20040;-45
2020/12/27 05:52:35;;;;;;;0.00;0.00;;;18.00;40.00;;;;;;5063674;28;20036;-47
2020/12/27 05:55:04;;;;;;;0.00;0.00;;;18.10;40.00;;;;;;5060633;28;20025;-49
2020/12/27 05:57:33;;;;;;;0.10;0.00;;;18.10;40.00;;;;;;5063019;28;20092;-45
2020/12/27 06:00:04;;;;;;;0.00;0.00;;;18.00;40.00;;;;;;5036698;28;20502;-44
2020/12/27 06:02:42;;;;;;;0.00;0.00;;;18.00;40.00;;;;;;5030031;28;20039;-44
2020/12/27 06:05:09;;;;;;;0.30;0.00;;;18.00;40.00;;;;;;5051960;28;20037;-46
2020/12/27 06:07:43;;;;;;;0.00;0.00;;;18.00;40.00;;;;;;5049710;28;20041;-44
2020/12/27 06:10:10;;;;;;;0.00;0.00;;;18.00;40.00;;;;;;5047919;28;20468;-45
2020/12/27 06:12:58;;;;;;;0.10;0.00;;;18.00;39.90;;;;;;5051186;28;20029;-47
2020/12/27 06:15:29;;;;;;;0.57;0.00;;;18.00;39.90;;;;;;5051596;28;20029;-44
2020/12/27 06:17:55;;;;;;;0.00;0.00;;;18.00;39.90;;;;;;5031132;28;20047;-46
2020/12/27 06:20:22;;;;;;;0.00;0.00;;;18.00;39.90;;;;;;5051397;28;20104;-46
2020/12/27 06:22:49;;;;;;;0.00;0.00;;;18.00;39.90;;;;;;5049805;28;20029;-44
2020/12/27 06:25:19;;;;;;;0.00;0.00;;;18.00;40.00;;;;;;5050609;28;20398;-45
2020/12/27 06:27:46;;;;;;;0.00;0.00;;;18.00;40.00;;;;;;5049313;28;20754;-47
2020/12/27 06:30:19;;;;;;;0.08;0.00;;;18.00;39.90;;;;;;5048209;28;20030;-44
2020/12/27 06:32:56;;;;;;;0.10;0.00;;;18.00;40.00;;;;;;5039886;28;20037;-45
2020/12/27 06:35:29;;;;;;;0.00;0.00;;;18.00;39.90;;;;;;5034941;28;20025;-44
2020/12/27 06:37:55;;;;;;;0.00;0.00;;;18.00;39.90;;;;;;5049665;28;20032;-45
2020/12/27 06:40:21;;;;;;;0.10;0.00;;;18.00;39.90;;;;;;5049859;28;20078;-44
2020/12/27 06:42:46;;;;;;;0.10;0.00;;;18.00;39.90;;;;;;5043929;28;20449;-45
2020/12/27 06:45:29;;;;;;;0.00;0.00;;;18.00;40.40;;;;;;5044464;28;20501;-45
2020/12/27 06:47:58;;;;;;;0.00;0.00;;;18.00;39.90;;;;;;5038985;28;20091;-44
2020/12/27 06:50:25;;;;;;;0.00;0.00;;;17.90;39.90;;;;;;5035574;28;20030;-44
2020/12/27 06:52:51;;;;;;;0.00;0.00;;;18.00;40.00;;;;;;5049639;28;20048;-44
2020/12/27 06:55:34;;;;;;;0.00;0.00;;;17.90;40.00;;;;;;5046972;28;20486;-46
2020/12/27 06:58:22;;;;;;;0.00;0.00;;;17.90;40.00;;;;;;5048522;28;20036;-46
2020/12/27 07:00:48;;;;;;;0.10;0.00;;;17.90;40.00;;;;;;5048990;28;20031;-44
2020/12/27 07:03:18;;;;;;;0.03;0.00;;;17.90;39.90;;;;;;5014715;28;20106;-45
2020/12/27 07:05:45;;;;;;;0.00;0.00;;;17.90;40.00;;;;;;5031673;28;20105;-46
2020/12/27 07:08:31;;;;;;;0.00;0.00;;;17.90;39.90;;;;;;5041513;28;20116;-43
2020/12/27 07:10:59;;;;;;;0.10;0.00;;;17.90;39.90;;;;;;5044656;28;20056;-45
2020/12/27 07:13:25;;;;;;;0.00;0.00;;;17.90;39.90;;;;;;5051397;28;20041;-45
2020/12/27 07:15:53;;;;;;;0.00;0.00;;;17.90;39.90;;;;;;5042671;28;20424;-46
2020/12/27 07:18:28;;;;;;;0.40;0.00;;;17.90;39.70;;;;;;5029592;28;21119;-44
2020/12/27 07:20:58;;;;;;;0.00;0.00;;;17.90;39.80;;;;;;5043799;28;20033;-45
2020/12/27 07:23:31;;;;;;;0.10;0.00;;;17.90;40.20;;;;;;5035924;28;20387;-44
2020/12/27 07:25:59;;;;;;;0.00;0.00;;;17.90;40.30;;;;;;5046692;28;20489;-46
2020/12/27 07:28:26;;;;;;;0.10;0.00;;;17.90;40.50;;;;;;5048774;28;20032;-41
2020/12/27 07:30:59;;;;;;;0.03;0.00;;;17.90;40.60;;;;;;5031255;28;20127;-44
2020/12/27 07:33:34;;;;;;;2.40;0.00;;;17.90;40.60;;;;;;5046346;28;20108;-45
2020/12/27 07:36:04;;;;;;;0.00;0.00;;;17.80;40.40;;;;;;5031456;28;20059;-46
2020/12/27 07:38:50;;;;;;;0.20;0.00;;;17.90;40.40;;;;;;5028272;28;20025;-45
2020/12/27 07:41:27;;;;;;;0.13;0.00;;;17.90;40.40;;;;;;5043090;28;20095;-44
2020/12/27 07:43:54;;;;;;;0.00;0.00;;;17.90;40.30;;;;;;5028656;28;20420;-43
2020/12/27 07:46:21;;;;;;;0.15;0.05;;;17.80;40.10;;;;;;5016435;28;20029;-44
2020/12/27 07:48:47;;;;;;;0.05;0.00;;;17.80;39.90;;;;;;5046288;28;20086;-45
2020/12/27 07:51:20;;;;;;;0.05;0.00;;;17.80;39.90;;;;;;5034773;28;20044;-44
2020/12/27 07:53:50;;;;;;;0.00;0.00;;;17.80;40.10;;;;;;5023001;28;20037;-45
2020/12/27 07:56:17;;;;;;;0.10;0.00;;;17.80;40.10;;;;;;5047643;28;20110;-44
2020/12/27 07:58:49;;;;;;;1.00;0.00;;;17.80;40.10;;;;;;5047832;28;20398;-44
2020/12/27 08:01:18;;;;;;;0.10;0.00;;;17.80;40.10;;;;;;5014074;28;20305;-43
2020/12/27 08:03:44;;;;;;;0.00;0.00;;;17.80;40.00;;;;;;5030075;28;20036;-43
2020/12/27 08:06:15;;;;;;;0.08;0.00;;;17.80;40.50;;;;;;5036011;28;20033;-45
2020/12/27 08:08:40;;;;;;;0.00;0.00;;;17.80;40.00;;;;;;5047873;28;20206;-44
2020/12/27 08:11:23;;;;;;;0.10;0.00;;;17.70;39.90;;;;;;5047225;28;20226;-46
2020/12/27 08:13:53;;;;;;;0.20;0.00;;;17.70;39.90;;;;;;5047604;28;20025;-43
2020/12/27 08:16:19;;;;;;;0.00;0.00;;;17.80;39.90;;;;;;5039349;28;20437;-45
2020/12/27 08:18:44;;;;;;;0.10;0.00;;;17.70;39.90;;;;;;5044797;28;20087;-42
2020/12/27 08:21:10;;;;;;;0.10;0.00;;;17.70;39.80;;;;;;5046737;28;20381;-43
2020/12/27 08:23:36;;;;;;;0.00;0.00;;;17.70;39.80;;;;;;5030467;28;20112;-46
2020/12/27 08:26:02;;;;;;;0.40;0.00;;;17.70;40.30;;;;;;5033330;28;20033;-46
2020/12/27 08:28:27;;;;;;;0.00;0.00;;;17.70;39.80;;;;;;5034572;28;21109;-44
2020/12/27 08:30:53;;;;;;;0.08;0.00;;;17.70;39.80;;;;;;5020739;28;20112;-45
2020/12/27 08:33:19;;;;;;;0.20;0.00;;;17.70;39.80;;;;;;5047302;28;20466;-45
2020/12/27 08:35:51;;;;;;;0.00;0.00;;;17.70;39.80;;;;;;5031549;28;20107;-45
2020/12/27 08:38:38;;;;;;;0.00;0.00;;;17.70;39.80;;;;;;5029964;28;20112;-43
2020/12/27 08:41:23;;;;;;;0.00;0.00;;;17.70;39.80;;;;;;5043024;28;20036;-44
2020/12/27 08:44:13;;;;;;;0.08;0.00;;;17.70;39.90;;;;;;5047124;28;20104;-44
2020/12/27 08:46:41;;;;;;;0.00;0.00;;;17.70;39.80;;;;;;5043999;28;20398;-48
2020/12/27 08:49:13;;;;;;;0.00;0.00;;;17.70;39.80;;;;;;5043354;28;20030;-42
2020/12/27 08:51:42;;;;;;;0.00;0.00;;;17.70;39.70;;;;;;5040978;28;20103;-45
2020/12/27 08:54:12;;;;;;;0.05;0.00;;;17.70;39.70;;;;;;5040116;28;20021;-42
2020/12/27 08:56:38;;;;;;;0.00;0.00;;;17.60;39.70;;;;;;5042543;28;20028;-45
2020/12/27 08:59:04;;;;;;;0.00;0.00;;;17.60;39.60;;;;;;5047711;28;20013;-43
2020/12/27 09:01:30;;;;;;;0.00;0.00;;;17.60;39.70;;;;;;5030922;28;20031;-42
2020/12/27 09:03:56;;;;;;;0.00;0.00;;;17.60;39.60;;;;;;5031783;28;20239;-45
2020/12/27 09:06:22;;;;;;;0.00;0.00;;;17.60;39.70;;;;;;5031113;28;20025;-44
2020/12/27 09:08:57;;;;;;;0.00;0.00;;;17.60;39.60;;;;;;5048735;28;20035;-45
2020/12/27 09:11:23;;;;;;;0.00;0.00;;;17.60;39.60;;;;;;5051469;28;20037;-47
2020/12/27 09:13:49;;;;;;;0.30;0.00;;;17.60;39.60;;;;;;5042130;28;20022;-45
2020/12/27 09:16:31;;;;;;;0.00;0.00;;;17.60;39.60;;;;;;5055446;28;20017;-45
2020/12/27 09:19:07;;;;;;;0.00;0.00;;;17.60;39.60;;;;;;5052641;28;20043;-45
2020/12/27 09:21:37;;;;;;;0.00;0.00;;;17.60;39.60;;;;;;5040066;28;20112;-43
2020/12/27 09:24:13;;;;;;;0.10;0.00;;;17.60;39.60;;;;;;5047475;28;20167;-43
2020/12/27 09:26:39;;;;;;;0.28;0.00;;;17.60;39.60;;;;;;5050290;28;20067;-43
2020/12/27 09:29:14;;;;;;;0.00;0.00;;;17.60;39.60;;;;;;5050365;28;20454;-45
2020/12/27 09:31:40;;;;;;;0.00;0.00;;;17.60;39.60;;;;;;5032360;28;20053;-45
2020/12/27 09:34:05;;;;;;;0.00;0.00;;;17.60;39.60;;;;;;5027320;28;20100;-44
2020/12/27 09:36:31;;;;;;;0.00;0.00;;;17.60;39.60;;;;;;5047900;28;20025;-44
2020/12/27 09:38:57;;;;;;;0.00;0.00;;;17.60;39.60;;;;;;5049162;28;20021;-42
2020/12/27 09:41:24;;;;;;;0.00;0.00;;;17.50;39.60;;;;;;5050684;28;20063;-46
2020/12/27 09:44:02;;;;;;;1.30;0.00;;;17.60;39.70;;;;;;5052891;28;20053;-44
2020/12/27 09:46:49;;;;;;;0.00;0.00;;;17.50;39.60;;;;;;5047905;28;20033;-45
2020/12/27 09:49:31;;;;;;;0.10;0.00;;;17.50;39.60;;;;;;5045405;28;20025;-45
2020/12/27 09:52:04;;;;;;;0.00;0.00;;;17.50;40.10;;;;;;5040432;28;20873;-43
2020/12/27 09:54:31;;;;;;;0.00;0.00;;;17.50;39.60;;;;;;5049279;28;20394;-47
2020/12/27 09:56:58;;;;;;;0.10;0.00;;;17.50;39.60;;;;;;5049956;28;20036;-46
2020/12/27 09:59:23;;;;;;;2.10;0.00;;;17.50;39.60;;;;;;5050236;28;20029;-45
2020/12/27 10:01:49;;;;;;;0.00;0.00;;;17.50;39.60;;;;;;5049081;28;20051;-46
2020/12/27 10:04:14;;;;;;;0.10;0.00;;;17.50;39.60;;;;;;5049635;28;20133;-46
2020/12/27 10:06:40;;;;;;;0.10;0.00;;;17.50;39.50;;;;;;5049757;28;20028;-46
2020/12/27 10:09:05;;;;;;;0.00;0.00;;;17.50;40.00;;;;;;5045782;28;20546;-45
2020/12/27 10:11:31;;;;;;;0.08;0.00;;;17.50;39.60;;;;;;5049278;28;20459;-47
2020/12/27 10:13:56;;;;;;;0.00;0.00;;;17.50;39.60;;;;;;5049096;28;20040;-47
2020/12/27 10:16:22;;;;;;;0.10;0.00;;;17.50;39.60;;;;;;5048745;28;20051;-41
2020/12/27 10:18:48;;;;;;;0.10;0.00;;;17.50;39.60;;;;;;5049906;28;20389;-44
2020/12/27 10:21:13;;;;;;;0.00;0.00;;;17.50;39.60;;;;;;5043449;28;20033;-46
2020/12/27 10:23:39;;;;;;;0.03;0.00;;;17.50;39.60;;;;;;5032875;28;20032;-42
2020/12/27 10:26:06;;;;;;;0.00;0.00;;;17.50;39.60;;;;;;5049351;28;20036;-45
2020/12/27 10:28:33;;;;;;;0.00;0.00;;;17.40;39.60;;;;;;5048783;28;20048;-44
2020/12/27 10:30:59;;;;;;;0.00;0.00;;;17.50;39.70;;;;;;5031471;28;20025;-45
2020/12/27 10:33:25;;;;;;;0.00;0.00;;;17.40;39.70;;;;;;5032522;28;20474;-42
2020/12/27 10:35:50;;;;;;;0.00;0.00;;;17.40;39.70;;;;;;5048980;28;20035;-45
2020/12/27 10:38:16;;;;;;;0.00;0.00;;;17.50;39.60;;;;;;5049395;28;20385;-44
2020/12/27 10:40:41;;;;;;;0.05;0.00;;;17.40;39.70;;;;;;5054585;28;20033;-44
2020/12/27 10:43:07;;;;;;;0.20;0.00;;;17.50;39.60;;;;;;5043862;28;20054;-45
2020/12/27 10:45:33;;;;;;;0.28;0.00;;;17.40;39.60;;;;;;5044152;28;20044;-46
2020/12/27 10:47:58;;;;;;;0.10;0.00;;;17.40;39.60;;;;;;5054383;28;20477;-47
2020/12/27 10:50:24;;;;;;;0.00;0.00;;;17.40;39.70;;;;;;5044201;28;20039;-45
2020/12/27 10:52:49;;;;;;;0.20;0.00;;;17.40;39.70;;;;;;5046359;28;20379;-44
2020/12/27 10:55:15;;;;;;;0.10;0.00;;;17.40;39.60;;;;;;5043884;28;20492;-45
2020/12/27 10:57:40;;;;;;;0.10;0.00;;;17.40;39.70;;;;;;5049683;28;20394;-46
2020/12/27 11:00:06;;;;;;;0.00;0.00;;;17.40;39.70;;;;;;5046924;28;20037;-46
2020/12/27 11:02:31;;;;;;;0.10;0.00;;;17.40;39.70;;;;;;5048053;28;20091;-45
2020/12/27 11:04:57;;;;;;;0.20;0.00;;;17.40;39.60;;;;;;5008262;28;20033;-46
2020/12/27 11:07:22;;;;;;;0.00;0.00;;;17.40;40.20;;;;;;5037944;28;20667;-47
2020/12/27 11:09:48;;;;;;;0.00;0.00;;;17.40;39.70;;;;;;5048847;28;20024;-46
2020/12/27 11:12:13;;;;;;;0.00;0.00;;;17.40;39.70;;;;;;5047266;28;20037;-46
2020/12/27 11:14:39;;;;;;;0.03;0.00;;;17.40;39.70;;;;;;5047574;28;20028;-44
2020/12/27 11:17:05;;;;;;;0.00;0.00;;;17.40;39.70;;;;;;5044102;28;20029;-44
2020/12/27 11:19:30;;;;;;;0.00;0.00;;;17.40;39.70;;;;;;5047979;28;20036;-44
2020/12/27 11:21:56;;;;;;;0.10;0.00;;;17.30;39.60;;;;;;5048339;28;20025;-44
2020/12/27 11:24:21;;;;;;;0.00;0.00;;;17.30;39.60;;;;;;5046888;28;20025;-45
2020/12/27 11:26:47;;;;;;;0.13;0.00;;;17.30;39.70;;;;;;5046425;28;20422;-50
2020/12/27 11:29:12;;;;;;;0.10;0.00;;;17.40;39.90;;;;;;5025734;28;20063;-49
2020/12/27 11:31:38;;;;;;;0.32;0.00;;;17.40;39.70;;;;;;5046919;28;20058;-50
2020/12/27 11:34:04;;;;;;;1.17;0.20;;;17.40;39.70;;;;;;5046805;28;20025;-44
2020/12/27 11:36:29;;;;;;;0.10;0.00;;;17.40;40.20;;;;;;5030177;28;20033;-48
2020/12/27 11:38:55;;;;;;;0.10;0.00;;;17.40;39.80;;;;;;5048450;28;20110;-48
2020/12/27 11:41:20;;;;;;;0.00;0.00;;;17.40;39.80;;;;;;5079076;22;20037;-46
2020/12/27 11:43:46;;;;;;;0.00;0.00;;;17.30;39.70;;;;;;5067058;28;20020;-47
2020/12/27 11:46:12;;;;;;;0.00;0.00;;;17.30;39.70;;;;;;5056053;28;20082;-48
2020/12/27 11:48:38;;;;;;;0.10;0.00;;;17.30;39.70;;;;;;5058481;28;20041;-47
2020/12/27 11:51:04;;;;;;;0.00;0.00;;;17.30;39.70;;;;;;5056823;28;20029;-47
2020/12/27 11:53:29;;;;;;;0.15;0.00;;;17.30;39.70;;;;;;5068390;28;20509;-47
2020/12/27 11:55:55;;;;;;;0.00;0.00;;;17.30;39.70;;;;;;5068986;28;20388;-47
2020/12/27 11:58:20;;;;;;;0.05;0.00;;;17.30;39.70;;;;;;5070010;28;20029;-47
2020/12/27 12:00:47;;;;;;;0.00;0.00;;;17.30;39.70;;;;;;5068421;28;20116;-46
2020/12/27 12:03:12;;;;;;;0.00;0.00;;;17.30;39.70;;;;;;5059990;28;20433;-48
2020/12/27 12:05:38;;;;;;;0.00;0.00;;;17.30;39.70;;;;;;5041183;28;20040;-48
2020/12/27 12:08:04;;;;;;;0.13;0.00;;;17.30;39.70;;;;;;5071478;28;20029;-48
2020/12/27 12:10:29;;;;;;;0.10;0.00;;;17.30;39.70;;;;;;5067104;28;20029;-46
2020/12/27 12:12:55;;;;;;;0.00;0.00;;;17.20;39.70;;;;;;5060642;28;20415;-48
2020/12/27 12:15:20;;;;;;;0.08;0.00;;;17.30;39.70;;;;;;5069637;28;20047;-46
2020/12/27 12:17:46;;;;;;;0.17;0.00;;;17.20;39.70;;;;;;5069652;28;20060;-48
2020/12/27 12:22:56;;;;;;;0.63;0.00;;;17.30;39.60;;;;;;5057995;28;20032;-46
2020/12/27 12:25:21;;;;;;;0.10;0.00;;;17.40;39.60;;;;;;5056856;28;20040;-47
2020/12/27 12:27:47;;;;;;;0.00;0.00;;;17.50;39.50;;;;;;5060907;28;20033;-46
2020/12/27 12:30:12;;;;;;;1.50;0.00;;;17.50;39.30;;;;;;5061889;28;20021;-47
2020/12/27 12:32:38;;;;;;;0.10;0.00;;;17.60;39.30;;;;;;5056713;28;20037;-47
2020/12/27 12:35:03;;;;;;;0.10;0.00;;;17.70;39.20;;;;;;5062183;28;20497;-46
2020/12/27 12:37:29;;;;;;;0.15;0.00;;;17.80;39.10;;;;;;5063177;28;20142;-48
2020/12/27 12:39:54;;;;;;;0.10;0.00;;;17.80;39.10;;;;;;5072511;28;20476;-47
2020/12/27 12:42:20;;;;;;;0.38;0.00;;;17.90;39.50;;;;;;5072245;28;20063;-47
2020/12/27 12:44:45;;;;;;;0.10;0.00;;;17.90;39.00;;;;;;5067770;28;20074;-47
2020/12/27 12:47:11;;;;;;;0.15;0.00;;;18.00;39.00;;;;;;5064670;28;20036;-48
2020/12/27 12:49:36;;;;;;;0.10;0.00;;;18.10;38.90;;;;;;5051696;28;20035;-46
2020/12/27 12:52:02;;;;;;;0.43;0.00;;;18.10;38.90;;;;;;5058803;28;20033;-47